Time;durP1;ratioP1;P1;durP2;ratioP2;P2;SDS_P1;SDS_P2;PMS_P1;PMS_P2;Temp;Humidity;BMP_temperature;BMP_pressure;BME280_temperature;BME280_humidity;BME280_pressure;Samples;Min_cycle;Max_cycle;Signal;HPM_P1;HPM_P2
2022/03/20 00:00:50;;;;;;;27.20;17.25;;;;;;;;;;4976017;28;20146;-62
2022/03/20 00:03:17;;;;;;;29.80;16.98;;;;;;;;;;4975747;28;20117;-62
2022/03/20 00:05:48;;;;;;;28.63;16.50;;;;;;;;;;4975691;28;20054;-62
2022/03/20 00:08:15;;;;;;;;;;;;;;;;;;4976390;28;20055;-61
2022/03/20 00:10:44;;;;;;;26.10;15.75;;;;;;;;;;4975603;28;19922;-62
2022/03/20 00:13:11;;;;;;;27.17;16.73;;;;;;;;;;4976020;28;20475;-62
2022/03/20 00:15:41;;;;;;;29.92;15.98;;;;;;;;;;4975088;28;20058;-62
2022/03/20 00:18:08;;;;;;;29.73;17.20;;;;;;;;;;4975875;28;20419;-62
2022/03/20 00:20:36;;;;;;;26.45;16.15;;;;;;;;;;4975438;28;20062;-62
2022/03/20 00:23:06;;;;;;;28.00;17.13;;;;;;;;;;4975589;28;20050;-60
2022/03/20 00:25:35;;;;;;;27.00;17.13;;;;;;;;;;4975254;28;20141;-59
2022/03/20 00:28:03;;;;;;;28.48;17.10;;;;;;;;;;4975698;28;20070;-59
2022/03/20 00:30:30;;;;;;;28.73;18.00;;;;;;;;;;4975231;28;20051;-61
2022/03/20 00:32:57;;;;;;;32.35;17.08;;;;;;;;;;4975220;28;20047;-61
2022/03/20 00:35:24;;;;;;;27.70;15.38;;;;;;;;;;4975083;28;20046;-60
2022/03/20 00:37:51;;;;;;;27.13;16.98;;;;;;;;;;4975027;28;20061;-61
2022/03/20 00:40:20;;;;;;;26.77;16.75;;;;;;;;;;4975059;28;20057;-61
2022/03/20 00:42:47;;;;;;;26.70;16.00;;;;;;;;;;4975177;28;20522;-60
2022/03/20 00:45:14;;;;;;;27.55;17.10;;;;;;;;;;4974823;28;20106;-60
2022/03/20 00:47:41;;;;;;;24.83;16.65;;;;;;;;;;4974766;28;20055;-61
2022/03/20 00:50:09;;;;;;;27.60;16.05;;;;;;;;;;4974869;28;20050;-60
2022/03/20 00:52:36;;;;;;;26.60;16.27;;;;;;;;;;4974848;28;20522;-61
2022/03/20 00:55:03;;;;;;;27.65;16.63;;;;;;;;;;4974926;28;20097;-59
2022/03/20 00:57:32;;;;;;;26.40;17.23;;;;;;;;;;4974757;28;20393;-61
2022/03/20 00:59:59;;;;;;;24.42;16.13;;;;;;;;;;4974746;28;20489;-60
2022/03/20 01:02:26;;;;;;;28.08;16.83;;;;;;;;;;4975099;28;20066;-61
2022/03/20 01:04:53;;;;;;;24.67;15.57;;;;;;;;;;4974500;28;20046;-61
2022/03/20 01:07:20;;;;;;;27.75;16.40;;;;;;;;;;4974436;28;20065;-61
2022/03/20 01:09:46;;;;;;;26.05;15.52;;;;;;;;;;4974525;28;20560;-61
2022/03/20 01:12:14;;;;;;;26.67;15.10;;;;;;;;;;4974882;28;20055;-61
2022/03/20 01:14:42;;;;;;;27.17;15.65;;;;;;;;;;4974205;28;20050;-60
2022/03/20 01:17:09;;;;;;;28.35;17.02;;;;;;;;;;4974494;28;20069;-61
2022/03/20 01:19:37;;;;;;;28.77;16.00;;;;;;;;;;4974224;28;20137;-60
2022/03/20 01:22:04;;;;;;;26.83;16.27;;;;;;;;;;4974383;28;20058;-61
2022/03/20 01:24:31;;;;;;;29.23;16.25;;;;;;;;;;4974240;28;20416;-61
2022/03/20 01:26:58;;;;;;;27.35;16.15;;;;;;;;;;4974026;28;20070;-61
2022/03/20 01:29:25;;;;;;;25.95;15.95;;;;;;;;;;4974126;28;20058;-61
2022/03/20 01:31:54;;;;;;;24.23;15.85;;;;;;;;;;4974173;28;20510;-60
2022/03/20 01:34:21;;;;;;;26.52;15.88;;;;;;;;;;4974056;28;20114;-60
2022/03/20 01:36:48;;;;;;;27.17;15.68;;;;;;;;;;4974145;28;20496;-60
2022/03/20 01:39:16;;;;;;;28.20;16.02;;;;;;;;;;4973997;28;20078;-61
2022/03/20 01:41:46;;;;;;;28.20;16.48;;;;;;;;;;4974165;28;20063;-59
2022/03/20 01:44:13;;;;;;;27.42;16.15;;;;;;;;;;4974120;28;20447;-61
2022/03/20 01:46:41;;;;;;;27.85;15.27;;;;;;;;;;4973400;28;20050;-61
2022/03/20 01:49:09;;;;;;;25.00;16.00;;;;;;;;;;4973975;28;20047;-61
2022/03/20 01:54:21;;;;;;;24.90;15.20;;;;;;;;;;4973912;28;20054;-61
2022/03/20 01:56:49;;;;;;;26.20;16.23;;;;;;;;;;4973543;28;20109;-60
2022/03/20 01:59:18;;;;;;;26.63;16.15;;;;;;;;;;4973672;28;20051;-61
2022/03/20 02:01:45;;;;;;;25.80;15.32;;;;;;;;;;4973415;28;20057;-59
2022/03/20 02:04:15;;;;;;;28.70;15.48;;;;;;;;;;4973730;28;20051;-59
2022/03/20 02:06:43;;;;;;;27.58;15.52;;;;;;;;;;4973335;28;20500;-60
2022/03/20 02:09:10;;;;;;;24.65;15.07;;;;;;;;;;4973538;28;20528;-61
2022/03/20 02:11:37;;;;;;;26.45;15.65;;;;;;;;;;4973450;28;20073;-60
2022/03/20 02:14:06;;;;;;;25.00;16.20;;;;;;;;;;4973520;28;20050;-59
2022/03/20 02:16:33;;;;;;;25.80;15.05;;;;;;;;;;4973058;28;20057;-59
2022/03/20 02:19:00;;;;;;;23.05;14.82;;;;;;;;;;4973302;28;20074;-61
2022/03/20 02:21:39;;;;;;;26.77;15.23;;;;;;;;;;4972960;28;20054;-60
2022/03/20 02:24:25;;;;;;;27.95;16.33;;;;;;;;;;4973251;28;20062;-60
2022/03/20 02:26:51;;;;;;;27.45;15.20;;;;;;;;;;4972964;28;20051;-61
2022/03/20 02:29:18;;;;;;;23.42;14.02;;;;;;;;;;4973358;28;20050;-60
2022/03/20 02:31:45;;;;;;;29.65;14.95;;;;;;;;;;4973119;28;20083;-60
2022/03/20 02:34:12;;;;;;;26.13;15.45;;;;;;;;;;4973202;28;20062;-61
2022/03/20 02:36:41;;;;;;;26.58;15.23;;;;;;;;;;4972765;28;20100;-61
2022/03/20 02:39:08;;;;;;;26.65;15.65;;;;;;;;;;4973142;28;20134;-61
2022/03/20 02:41:35;;;;;;;26.90;14.80;;;;;;;;;;4973140;28;20058;-61
2022/03/20 02:44:02;;;;;;;25.27;14.95;;;;;;;;;;4972954;28;20058;-61
2022/03/20 02:46:31;;;;;;;31.80;16.60;;;;;;;;;;4973068;28;20066;-60
2022/03/20 02:49:00;;;;;;;24.27;14.52;;;;;;;;;;4972763;28;20055;-61
2022/03/20 02:51:27;;;;;;;27.67;16.05;;;;;;;;;;4972913;28;20137;-61
2022/03/20 02:53:55;;;;;;;27.40;15.82;;;;;;;;;;4973176;28;20054;-61
2022/03/20 02:56:22;;;;;;;28.15;15.38;;;;;;;;;;4972879;28;20062;-61
2022/03/20 02:58:49;;;;;;;28.23;16.08;;;;;;;;;;4972988;28;20062;-59
2022/03/20 03:01:17;;;;;;;27.55;15.80;;;;;;;;;;4973036;28;20102;-60
2022/03/20 03:03:45;;;;;;;25.17;15.52;;;;;;;;;;4973039;28;20097;-61
2022/03/20 03:06:12;;;;;;;25.17;14.52;;;;;;;;;;4972854;28;20058;-60
2022/03/20 03:11:25;;;;;;;24.58;15.07;;;;;;;;;;4973153;28;20058;-61
2022/03/20 03:13:52;;;;;;;27.20;16.10;;;;;;;;;;4972891;28;20073;-60
2022/03/20 03:16:19;;;;;;;25.52;15.52;;;;;;;;;;4972449;28;20043;-61
2022/03/20 03:18:48;;;;;;;30.10;16.77;;;;;;;;;;4972934;28;20081;-60
2022/03/20 03:21:17;;;;;;;27.50;16.20;;;;;;;;;;4972687;28;20053;-60
2022/03/20 03:23:45;;;;;;;29.50;16.75;;;;;;;;;;4972963;28;20135;-60
2022/03/20 03:26:12;;;;;;;25.65;15.25;;;;;;;;;;4972594;28;20055;-61
2022/03/20 03:28:41;;;;;;;28.13;15.50;;;;;;;;;;4972526;28;20400;-60
2022/03/20 03:31:11;;;;;;;26.83;15.32;;;;;;;;;;4972765;28;20058;-61
2022/03/20 03:35:41;;;;;;;28.02;15.90;;;;;;;;;;4973416;28;20051;-61
2022/03/20 03:36:27;;;;;;;25.13;15.07;;;;;;;;;;4976074;28;20055;-60
2022/03/20 03:38:54;;;;;;;25.48;15.50;;;;;;;;;;4976225;28;20050;-60
2022/03/20 03:41:21;;;;;;;27.88;16.38;;;;;;;;;;4976157;28;20051;-61
2022/03/20 03:43:50;;;;;;;24.42;14.32;;;;;;;;;;4976398;28;20050;-60
2022/03/20 03:46:17;;;;;;;26.65;16.42;;;;;;;;;;4956685;29;20054;-61
2022/03/20 03:48:43;;;;;;;24.70;14.98;;;;;;;;;;4956784;29;20276;-60
2022/03/20 03:51:10;;;;;;;25.65;15.10;;;;;;;;;;4956881;29;20074;-60
2022/03/20 03:53:37;;;;;;;28.45;15.50;;;;;;;;;;4956707;29;20051;-60
2022/03/20 03:56:06;;;;;;;24.10;14.98;;;;;;;;;;4956478;29;20421;-60
2022/03/20 03:58:33;;;;;;;25.40;16.13;;;;;;;;;;4956795;29;20457;-61
2022/03/20 04:01:01;;;;;;;26.65;15.93;;;;;;;;;;4957003;29;20469;-61
2022/03/20 04:03:28;;;;;;;26.23;15.57;;;;;;;;;;4956455;29;20102;-61
2022/03/20 04:06:05;;;;;;;25.60;15.20;;;;;;;;;;4956325;29;20055;-61
2022/03/20 04:08:32;;;;;;;27.15;16.98;;;;;;;;;;4956272;29;20055;-61
2022/03/20 04:10:59;;;;;;;27.58;15.80;;;;;;;;;;4956706;29;20083;-61
2022/03/20 04:13:26;;;;;;;26.92;16.23;;;;;;;;;;4956495;29;20051;-62
2022/03/20 04:15:53;;;;;;;29.83;16.35;;;;;;;;;;4956141;29;20102;-61
2022/03/20 04:18:21;;;;;;;26.45;16.10;;;;;;;;;;4956160;29;20140;-62
2022/03/20 04:20:48;;;;;;;27.48;15.80;;;;;;;;;;4956377;29;20074;-62
2022/03/20 04:26:00;;;;;;;27.35;15.82;;;;;;;;;;4956250;29;20401;-62
2022/03/20 04:28:29;;;;;;;30.75;16.65;;;;;;;;;;4955883;29;20047;-62
2022/03/20 04:30:55;;;;;;;26.70;16.42;;;;;;;;;;4956453;29;20469;-61
2022/03/20 04:33:24;;;;;;;27.25;15.38;;;;;;;;;;4956215;29;20051;-60
2022/03/20 04:35:51;;;;;;;29.23;15.75;;;;;;;;;;4956068;29;20059;-61
2022/03/20 04:38:21;;;;;;;26.50;15.43;;;;;;;;;;4955976;29;20051;-61
2022/03/20 04:40:48;;;;;;;29.88;15.80;;;;;;;;;;4956199;29;20090;-61
2022/03/20 04:43:17;;;;;;;25.05;15.32;;;;;;;;;;4956251;29;20102;-61
2022/03/20 04:45:44;;;;;;;26.60;15.18;;;;;;;;;;4970463;28;20062;-62
2022/03/20 04:59:19;;;;;;;26.90;15.68;;;;;;;;;;4974909;28;20113;-62
2022/03/20 05:01:46;;;;;;;27.73;16.02;;;;;;;;;;4974924;28;20057;-62
2022/03/20 05:04:13;;;;;;;28.00;16.08;;;;;;;;;;4974811;28;20054;-62
2022/03/20 05:06:42;;;;;;;27.63;15.48;;;;;;;;;;4974678;28;20058;-61
2022/03/20 05:14:37;;;;;;;28.38;15.60;;;;;;;;;;4974513;28;20054;-61
2022/03/20 05:17:05;;;;;;;29.23;16.75;;;;;;;;;;4974163;28;20522;-60
2022/03/20 05:19:34;;;;;;;25.80;14.75;;;;;;;;;;4974528;28;20389;-61
2022/03/20 05:22:02;;;;;;;25.48;14.23;;;;;;;;;;4974656;28;20547;-61
2022/03/20 05:24:29;;;;;;;27.33;15.32;;;;;;;;;;4974874;28;20532;-61
2022/03/20 05:26:56;;;;;;;28.40;16.75;;;;;;;;;;4974117;28;20051;-62
2022/03/20 05:29:23;;;;;;;35.13;17.50;;;;;;;;;;4974201;28;20051;-62
2022/03/20 05:31:50;;;;;;;28.63;16.77;;;;;;;;;;4974289;28;20066;-62
2022/03/20 05:34:17;;;;;;;30.50;16.58;;;;;;;;;;4974240;28;20133;-61
2022/03/20 05:36:45;;;;;;;30.95;16.88;;;;;;;;;;4974145;28;20576;-62
2022/03/20 05:39:13;;;;;;;27.23;15.45;;;;;;;;;;4973786;28;20105;-61
2022/03/20 05:41:51;;;;;;;30.77;16.15;;;;;;;;;;4974226;28;20057;-62
2022/03/20 05:44:19;;;;;;;31.00;16.50;;;;;;;;;;4973985;28;20531;-61
2022/03/20 05:46:48;;;;;;;26.98;16.73;;;;;;;;;;4973775;28;20051;-61
2022/03/20 05:49:15;;;;;;;28.63;16.05;;;;;;;;;;4973780;28;20058;-61
2022/03/20 05:51:43;;;;;;;27.73;15.80;;;;;;;;;;4974121;28;20424;-61
2022/03/20 05:54:10;;;;;;;28.60;16.30;;;;;;;;;;4973849;28;20055;-62
2022/03/20 05:59:23;;;;;;;28.63;15.80;;;;;;;;;;4973824;28;20061;-61
2022/03/20 06:01:50;;;;;;;29.23;15.85;;;;;;;;;;4973817;28;20058;-61
2022/03/20 06:04:17;;;;;;;26.73;15.30;;;;;;;;;;4973704;28;20093;-60
2022/03/20 06:06:44;;;;;;;27.17;16.20;;;;;;;;;;4973582;28;20291;-61
2022/03/20 06:09:12;;;;;;;27.95;15.98;;;;;;;;;;4973290;28;20062;-61
2022/03/20 06:11:40;;;;;;;29.95;16.35;;;;;;;;;;4973642;28;20047;-61
2022/03/20 06:14:07;;;;;;;28.92;16.95;;;;;;;;;;4973535;28;20051;-61
2022/03/20 06:16:35;;;;;;;27.75;16.73;;;;;;;;;;4973118;28;20101;-60
2022/03/20 06:19:03;;;;;;;29.60;17.48;;;;;;;;;;4973631;28;20059;-60
2022/03/20 06:21:30;;;;;;;29.65;16.58;;;;;;;;;;4973344;28;20141;-63
2022/03/20 06:23:57;;;;;;;32.38;17.92;;;;;;;;;;4973352;28;20046;-62
2022/03/20 06:26:24;;;;;;;28.80;16.63;;;;;;;;;;4973562;28;20097;-61
2022/03/20 06:28:53;;;;;;;28.90;16.35;;;;;;;;;;4973323;28;20086;-59
2022/03/20 06:31:22;;;;;;;28.55;16.10;;;;;;;;;;4973479;28;20054;-61
2022/03/20 06:33:49;;;;;;;29.85;16.83;;;;;;;;;;4973131;28;20050;-59
2022/03/20 06:36:16;;;;;;;28.58;16.85;;;;;;;;;;4972936;28;20416;-61
2022/03/20 06:38:43;;;;;;;30.80;17.08;;;;;;;;;;4973406;28;20054;-62
2022/03/20 06:41:10;;;;;;;27.85;16.30;;;;;;;;;;4973093;28;20058;-62
2022/03/20 06:43:38;;;;;;;32.30;16.10;;;;;;;;;;4973278;28;20055;-62
2022/03/20 06:46:07;;;;;;;29.75;17.30;;;;;;;;;;4973224;28;20046;-63
2022/03/20 06:48:34;;;;;;;30.80;17.10;;;;;;;;;;4972954;28;20051;-62
2022/03/20 06:51:04;;;;;;;30.65;16.17;;;;;;;;;;4973144;28;20051;-61
2022/03/20 06:53:33;;;;;;;30.70;17.95;;;;;;;;;;4973166;28;20046;-62
2022/03/20 06:56:01;;;;;;;29.85;17.13;;;;;;;;;;4972895;28;20054;-61
2022/03/20 06:58:29;;;;;;;27.48;16.15;;;;;;;;;;4971969;28;20055;-60
2022/03/20 07:00:57;;;;;;;27.73;16.70;;;;;;;;;;4973588;28;20436;-61
2022/03/20 07:03:28;;;;;;;35.03;18.88;;;;;;;;;;4972790;28;20098;-61
2022/03/20 07:05:55;;;;;;;30.05;17.08;;;;;;;;;;4973158;28;20055;-61
2022/03/20 07:08:22;;;;;;;30.77;16.45;;;;;;;;;;4974600;28;20055;-61
2022/03/20 07:10:49;;;;;;;27.27;17.45;;;;;;;;;;4976759;28;20408;-60
2022/03/20 07:16:00;;;;;;;32.30;17.25;;;;;;;;;;4976525;28;20065;-61
2022/03/20 07:18:29;;;;;;;30.75;17.17;;;;;;;;;;4976613;28;20077;-61
2022/03/20 07:20:56;;;;;;;30.05;17.75;;;;;;;;;;4976739;28;20051;-61
2022/03/20 07:23:23;;;;;;;30.42;17.05;;;;;;;;;;4976612;28;20065;-61
2022/03/20 07:31:19;;;;;;;28.65;15.80;;;;;;;;;;4977161;28;20053;-59
2022/03/20 07:33:49;;;;;;;30.75;17.60;;;;;;;;;;4976470;28;20061;-60
2022/03/20 07:36:18;;;;;;;27.65;17.33;;;;;;;;;;4976116;28;20062;-60
2022/03/20 07:38:45;;;;;;;31.08;17.55;;;;;;;;;;4976397;28;20054;-59
2022/03/20 07:41:12;;;;;;;30.35;17.48;;;;;;;;;;4976395;28;20058;-58
2022/03/20 07:43:39;;;;;;;33.72;19.52;;;;;;;;;;4976571;28;20055;-60
2022/03/20 07:46:08;;;;;;;32.63;18.80;;;;;;;;;;4976134;28;20050;-60
2022/03/20 07:48:35;;;;;;;35.88;21.23;;;;;;;;;;4976373;28;20485;-60
2022/03/20 07:51:04;;;;;;;32.80;18.48;;;;;;;;;;4976268;28;20054;-58
2022/03/20 07:53:31;;;;;;;34.13;19.08;;;;;;;;;;4976265;28;20062;-60
2022/03/20 07:55:58;;;;;;;30.60;17.40;;;;;;;;;;4975822;28;20088;-60
2022/03/20 07:58:25;;;;;;;28.10;18.42;;;;;;;;;;4975965;28;20072;-60
2022/03/20 08:00:52;;;;;;;28.50;16.83;;;;;;;;;;4975930;28;20070;-60
2022/03/20 08:03:19;;;;;;;32.10;17.23;;;;;;;;;;4976022;28;20051;-60
2022/03/20 08:05:46;;;;;;;29.73;16.65;;;;;;;;;;4975493;28;20054;-60
2022/03/20 08:08:16;;;;;;;29.88;18.15;;;;;;;;;;4976222;28;20047;-62
2022/03/20 08:10:43;;;;;;;30.35;17.83;;;;;;;;;;4975666;28;20047;-62
2022/03/20 08:13:11;;;;;;;28.90;16.98;;;;;;;;;;4975898;28;20415;-62
2022/03/20 08:15:39;;;;;;;28.10;16.38;;;;;;;;;;4975498;28;20059;-60
2022/03/20 08:18:07;;;;;;;29.25;17.63;;;;;;;;;;4975952;28;20125;-61
2022/03/20 08:20:34;;;;;;;27.55;16.85;;;;;;;;;;4974993;28;20054;-62
2022/03/20 08:23:01;;;;;;;32.33;19.17;;;;;;;;;;4975912;28;20050;-62
2022/03/20 08:25:30;;;;;;;28.77;18.15;;;;;;;;;;4976072;28;20053;-61
2022/03/20 08:27:57;;;;;;;28.20;16.80;;;;;;;;;;4976398;28;20590;-63
2022/03/20 08:30:24;;;;;;;30.45;18.05;;;;;;;;;;4975558;28;20424;-63
2022/03/20 08:32:53;;;;;;;29.92;18.42;;;;;;;;;;4975748;28;20130;-62
2022/03/20 08:35:21;;;;;;;27.88;17.88;;;;;;;;;;4975799;28;20145;-62
2022/03/20 08:37:49;;;;;;;28.55;18.42;;;;;;;;;;4976070;28;20046;-62
2022/03/20 08:40:19;;;;;;;28.08;16.63;;;;;;;;;;4975782;28;20062;-62
2022/03/20 08:42:48;;;;;;;30.58;17.75;;;;;;;;;;4975654;28;20055;-62
2022/03/20 08:45:16;;;;;;;28.35;17.35;;;;;;;;;;4975699;28;20062;-63
2022/03/20 08:47:43;;;;;;;27.48;16.70;;;;;;;;;;4975969;28;20061;-63
2022/03/20 08:50:13;;;;;;;27.70;15.88;;;;;;;;;;4975600;28;20560;-63
2022/03/20 08:52:40;;;;;;;26.55;16.55;;;;;;;;;;4975898;28;20079;-63
2022/03/20 08:55:11;;;;;;;26.40;15.88;;;;;;;;;;4975594;28;20061;-63
2022/03/20 08:57:40;;;;;;;;;;;;;;;;;;4975532;28;20083;-61
2022/03/20 09:00:11;;;;;;;29.25;16.08;;;;;;;;;;4975175;28;19922;-62
2022/03/20 09:02:39;;;;;;;27.92;16.35;;;;;;;;;;4975228;28;20552;-63
2022/03/20 09:05:10;;;;;;;27.45;16.77;;;;;;;;;;4974725;28;20356;-62
2022/03/20 09:07:37;;;;;;;25.27;16.00;;;;;;;;;;4974658;28;20055;-62
2022/03/20 09:10:04;;;;;;;25.13;16.08;;;;;;;;;;4974707;28;20121;-62
2022/03/20 09:12:31;;;;;;;27.75;16.88;;;;;;;;;;4974593;28;20051;-62
2022/03/20 09:14:58;;;;;;;29.33;17.30;;;;;;;;;;4974285;28;20047;-62
2022/03/20 09:20:11;;;;;;;25.90;15.68;;;;;;;;;;4974531;28;20066;-62
2022/03/20 09:22:38;;;;;;;25.55;15.48;;;;;;;;;;4974427;28;20050;-62
2022/03/20 09:25:07;;;;;;;27.60;17.58;;;;;;;;;;4974158;28;20046;-62
2022/03/20 09:27:34;;;;;;;27.40;15.55;;;;;;;;;;4973978;28;20142;-62
2022/03/20 09:30:01;;;;;;;25.83;15.50;;;;;;;;;;4974213;28;20078;-62
2022/03/20 09:32:30;;;;;;;23.05;15.98;;;;;;;;;;4973264;28;20046;-62
2022/03/20 09:34:57;;;;;;;24.02;15.05;;;;;;;;;;4973923;28;20043;-62
2022/03/20 09:37:24;;;;;;;23.67;15.15;;;;;;;;;;4973949;28;20050;-62
2022/03/20 09:39:51;;;;;;;24.95;15.43;;;;;;;;;;4974028;28;20059;-62
2022/03/20 09:42:19;;;;;;;22.70;15.32;;;;;;;;;;4974010;28;20057;-62
2022/03/20 09:44:47;;;;;;;25.13;15.18;;;;;;;;;;4973839;28;20109;-62
2022/03/20 09:47:17;;;;;;;23.30;14.40;;;;;;;;;;4974008;28;20057;-62
2022/03/20 09:49:46;;;;;;;25.63;15.40;;;;;;;;;;4974033;28;20417;-62
2022/03/20 09:52:14;;;;;;;21.55;13.77;;;;;;;;;;4973865;28;20057;-62
2022/03/20 09:54:41;;;;;;;22.10;14.55;;;;;;;;;;4974409;28;20051;-62
2022/03/20 09:57:10;;;;;;;22.98;14.63;;;;;;;;;;4973721;28;20061;-62
2022/03/20 09:59:39;;;;;;;24.48;14.95;;;;;;;;;;4973840;28;20058;-62
2022/03/20 10:02:07;;;;;;;23.05;14.38;;;;;;;;;;4973858;28;20057;-62
2022/03/20 10:04:54;;;;;;;21.67;15.32;;;;;;;;;;4973769;28;20051;-62
2022/03/20 10:07:22;;;;;;;22.55;14.07;;;;;;;;;;4974086;28;20518;-63
2022/03/20 10:10:10;;;;;;;22.50;14.60;;;;;;;;;;4973760;28;20081;-64
2022/03/20 10:12:40;;;;;;;20.65;13.98;;;;;;;;;;4973679;28;20054;-64
2022/03/20 10:15:10;;;;;;;19.77;13.23;;;;;;;;;;4973473;28;20141;-63
2022/03/20 10:17:39;;;;;;;26.20;14.93;;;;;;;;;;4973603;28;20097;-61
2022/03/20 10:20:18;;;;;;;21.58;13.75;;;;;;;;;;4973739;28;20055;-60
2022/03/20 10:22:46;;;;;;;23.25;15.20;;;;;;;;;;4973996;28;20510;-62
2022/03/20 10:25:13;;;;;;;21.42;14.65;;;;;;;;;;4973359;28;20051;-61
2022/03/20 10:27:56;;;;;;;23.67;15.32;;;;;;;;;;4973409;28;20489;-61
2022/03/20 10:30:24;;;;;;;25.40;15.32;;;;;;;;;;4973309;28;20061;-60
2022/03/20 10:32:52;;;;;;;21.25;13.70;;;;;;;;;;4973193;28;20047;-61
2022/03/20 10:35:20;;;;;;;23.85;15.02;;;;;;;;;;4973074;28;20051;-62
2022/03/20 10:37:52;;;;;;;20.77;13.70;;;;;;;;;;4973418;28;20046;-61
2022/03/20 10:40:22;;;;;;;23.45;15.57;;;;;;;;;;4972987;28;20047;-61
2022/03/20 10:43:10;;;;;;;21.33;14.00;;;;;;;;;;4973009;28;20077;-61
2022/03/20 10:46:00;;;;;;;20.45;13.75;;;;;;;;;;4973042;28;20462;-61
2022/03/20 10:48:37;;;;;;;19.70;12.93;;;;;;;;;;4968174;28;20423;-61
2022/03/20 10:51:07;;;;;;;21.02;13.32;;;;;;;;;;4973291;28;20057;-61
2022/03/20 10:53:35;;;;;;;22.13;14.00;;;;;;;;;;4973281;28;20055;-61
2022/03/20 10:56:07;;;;;;;20.17;13.68;;;;;;;;;;4972662;28;20050;-60
2022/03/20 10:58:38;;;;;;;24.90;15.45;;;;;;;;;;4973166;28;20054;-61
2022/03/20 11:01:07;;;;;;;;;;;;;;;;;;4973554;28;20069;-61
2022/03/20 11:03:36;;;;;;;18.17;12.90;;;;;;;;;;4973564;28;20029;-61
2022/03/20 11:06:08;;;;;;;21.13;13.55;;;;;;;;;;4973059;28;20054;-62
2022/03/20 11:08:36;;;;;;;21.90;14.50;;;;;;;;;;4973210;28;20058;-61
2022/03/20 11:11:04;;;;;;;21.60;13.45;;;;;;;;;;4972896;28;20062;-62
2022/03/20 11:13:35;;;;;;;20.90;12.75;;;;;;;;;;4973269;28;20459;-62
2022/03/20 11:16:05;;;;;;;;;;;;;;;;;;4973581;28;20413;-59
2022/03/20 11:18:33;;;;;;;19.08;13.15;;;;;;;;;;4973052;28;19922;-62
2022/03/20 11:21:03;;;;;;;18.45;12.48;;;;;;;;;;4973013;28;20373;-63
2022/03/20 11:23:35;;;;;;;19.30;12.70;;;;;;;;;;4973177;28;20118;-63
2022/03/20 11:26:04;;;;;;;21.42;14.45;;;;;;;;;;4972982;28;20054;-62
2022/03/20 11:28:35;;;;;;;19.30;13.05;;;;;;;;;;4973166;28;20145;-62
2022/03/20 11:31:03;;;;;;;19.38;12.63;;;;;;;;;;4972970;28;20137;-62
2022/03/20 11:33:30;;;;;;;19.88;12.88;;;;;;;;;;4972989;28;20061;-62
2022/03/20 11:36:01;;;;;;;18.63;13.23;;;;;;;;;;4972831;28;20051;-62
2022/03/20 11:38:28;;;;;;;19.58;13.45;;;;;;;;;;4972629;28;20242;-61
2022/03/20 11:41:11;;;;;;;20.40;12.60;;;;;;;;;;4973110;28;20055;-63
2022/03/20 11:43:39;;;;;;;20.02;13.20;;;;;;;;;;4972863;28;20051;-63
2022/03/20 11:46:30;;;;;;;19.13;12.40;;;;;;;;;;4972386;28;20058;-61
2022/03/20 11:49:15;;;;;;;;;;;;;;;;;;4968588;28;20055;-61
2022/03/20 11:52:05;;;;;;;19.95;13.60;;;;;;;;;;4972840;28;19925;-62
2022/03/20 11:54:33;;;;;;;;;;;;;;;;;;4968874;28;20062;-61
2022/03/20 11:57:02;;;;;;;18.45;11.23;;;;;;;;;;4975659;28;19922;-61
2022/03/20 11:59:48;;;;;;;17.52;11.88;;;;;;;;;;4976136;28;20133;-61
2022/03/20 12:02:17;;;;;;;19.48;11.50;;;;;;;;;;4976226;28;20476;-60
2022/03/20 12:05:00;;;;;;;18.15;12.25;;;;;;;;;;4976083;28;20501;-61
2022/03/20 12:07:36;;;;;;;20.65;13.55;;;;;;;;;;4975986;28;20134;-62
2022/03/20 12:10:17;;;;;;;19.15;12.20;;;;;;;;;;4976072;28;20057;-60
2022/03/20 12:12:59;;;;;;;18.05;12.00;;;;;;;;;;4976110;28;20086;-61
2022/03/20 12:15:29;;;;;;;19.08;12.55;;;;;;;;;;4975409;28;20098;-61
2022/03/20 12:17:58;;;;;;;19.70;12.45;;;;;;;;;;4975834;28;20061;-61
2022/03/20 12:20:59;;;;;;;19.25;12.07;;;;;;;;;;4976129;28;20050;-61
2022/03/20 12:23:39;;;;;;;19.27;12.45;;;;;;;;;;4975880;28;20162;-61
2022/03/20 12:26:31;;;;;;;19.50;12.60;;;;;;;;;;4975922;28;20098;-62
2022/03/20 12:29:34;;;;;;;18.02;12.25;;;;;;;;;;4971698;28;20424;-62
2022/03/20 12:32:07;;;;;;;19.10;12.68;;;;;;;;;;4971028;28;20109;-59
2022/03/20 12:34:34;;;;;;;21.70;13.05;;;;;;;;;;4975201;28;20101;-61
2022/03/20 12:37:40;;;;;;;18.73;13.18;;;;;;;;;;4975212;28;20050;-61
2022/03/20 12:40:17;;;;;;;20.20;12.48;;;;;;;;;;4897030;29;20127;-63
2022/03/20 12:42:55;;;;;;;16.27;11.25;;;;;;;;;;4897014;29;20057;-63
2022/03/20 12:45:24;;;;;;;17.98;13.13;;;;;;;;;;4945985;28;20051;-63
2022/03/20 12:47:57;;;;;;;24.38;15.65;;;;;;;;;;4975123;28;20089;-63
2022/03/20 12:50:27;;;;;;;16.95;12.20;;;;;;;;;;4975082;28;20061;-63
2022/03/20 12:53:02;;;;;;;20.10;13.20;;;;;;;;;;4975113;28;20054;-63
2022/03/20 12:55:30;;;;;;;18.77;13.68;;;;;;;;;;4975112;28;20050;-63
2022/03/20 12:57:57;;;;;;;17.95;12.70;;;;;;;;;;4975047;28;20061;-61
2022/03/20 13:00:27;;;;;;;19.60;13.40;;;;;;;;;;4975283;28;20051;-61
2022/03/20 13:03:03;;;;;;;19.88;12.68;;;;;;;;;;4975245;28;20552;-63
2022/03/20 13:05:32;;;;;;;19.35;13.25;;;;;;;;;;4974409;28;20051;-63
2022/03/20 13:07:59;;;;;;;17.58;13.05;;;;;;;;;;4974678;28;20047;-62
2022/03/20 13:10:33;;;;;;;16.05;11.60;;;;;;;;;;4974719;28;20106;-62
2022/03/20 13:13:02;;;;;;;18.70;12.68;;;;;;;;;;4974930;28;20051;-62
2022/03/20 13:15:32;;;;;;;16.88;12.70;;;;;;;;;;4974093;28;20058;-63
2022/03/20 13:17:59;;;;;;;20.25;12.60;;;;;;;;;;4974550;28;20093;-62
2022/03/20 13:20:28;;;;;;;17.63;12.35;;;;;;;;;;4974266;28;20433;-62
2022/03/20 13:22:55;;;;;;;20.05;13.77;;;;;;;;;;4974528;28;20047;-62
2022/03/20 13:25:23;;;;;;;21.35;15.80;;;;;;;;;;4974243;28;20485;-62
2022/03/20 13:27:51;;;;;;;21.42;14.98;;;;;;;;;;4974403;28;20081;-62
2022/03/20 13:30:20;;;;;;;19.17;14.23;;;;;;;;;;4973940;28;20061;-62
2022/03/20 13:32:58;;;;;;;18.42;13.35;;;;;;;;;;4974041;28;20065;-63
2022/03/20 13:35:25;;;;;;;19.33;12.63;;;;;;;;;;4974089;28;20050;-63
2022/03/20 13:37:57;;;;;;;15.93;12.05;;;;;;;;;;4974143;28;20047;-63
2022/03/20 13:40:25;;;;;;;17.15;13.35;;;;;;;;;;4973845;28;20061;-62
2022/03/20 13:42:53;;;;;;;18.73;12.95;;;;;;;;;;4974099;28;20050;-61
2022/03/20 13:45:20;;;;;;;17.70;13.55;;;;;;;;;;4973806;28;20133;-62
2022/03/20 13:47:48;;;;;;;17.85;13.73;;;;;;;;;;4973770;28;20054;-63
2022/03/20 13:50:17;;;;;;;18.70;12.88;;;;;;;;;;4974465;28;20509;-62
2022/03/20 13:52:45;;;;;;;17.95;12.85;;;;;;;;;;4974681;28;20050;-63
2022/03/20 13:55:14;;;;;;;18.00;13.20;;;;;;;;;;4974663;28;20173;-63
2022/03/20 13:57:54;;;;;;;17.15;12.63;;;;;;;;;;4974709;28;20573;-62
2022/03/20 14:00:23;;;;;;;16.30;12.70;;;;;;;;;;4974950;28;20051;-62
2022/03/20 14:02:52;;;;;;;14.32;10.88;;;;;;;;;;4974697;28;20066;-62
2022/03/20 14:05:24;;;;;;;16.52;12.43;;;;;;;;;;4974432;28;20120;-63
2022/03/20 14:08:03;;;;;;;18.50;13.38;;;;;;;;;;4974590;28;20055;-62
2022/03/20 14:10:31;;;;;;;19.35;14.75;;;;;;;;;;4974192;28;20050;-61
2022/03/20 14:13:19;;;;;;;20.08;13.38;;;;;;;;;;4974113;28;20055;-62
2022/03/20 14:16:03;;;;;;;19.35;13.98;;;;;;;;;;4973935;28;20137;-63
2022/03/20 14:18:31;;;;;;;18.27;13.38;;;;;;;;;;4973514;28;20059;-63
2022/03/20 14:21:16;;;;;;;20.05;13.85;;;;;;;;;;4973961;28;20065;-63
2022/03/20 14:23:58;;;;;;;18.70;13.50;;;;;;;;;;4973922;28;20149;-62
2022/03/20 14:26:26;;;;;;;18.70;14.27;;;;;;;;;;4973569;28;20058;-62
2022/03/20 14:29:10;;;;;;;20.33;14.35;;;;;;;;;;4973646;28;20145;-63
2022/03/20 14:40:08;;;;;;;20.05;14.27;;;;;;;;;;4973984;28;20049;-62
2022/03/20 14:42:36;;;;;;;16.00;13.13;;;;;;;;;;4973954;28;20448;-62
2022/03/20 14:45:05;;;;;;;18.85;14.13;;;;;;;;;;4974518;28;20121;-62
2022/03/20 14:47:33;;;;;;;18.45;14.27;;;;;;;;;;4974628;28;20162;-63
2022/03/20 14:50:00;;;;;;;17.85;13.55;;;;;;;;;;4973903;28;20479;-62
2022/03/20 14:52:29;;;;;;;17.40;13.50;;;;;;;;;;4974063;28;20055;-63
2022/03/20 14:54:56;;;;;;;17.90;13.48;;;;;;;;;;4973994;28;20051;-63
2022/03/20 14:57:22;;;;;;;17.13;13.30;;;;;;;;;;4973905;28;20047;-63
2022/03/20 14:59:51;;;;;;;15.77;13.02;;;;;;;;;;4974518;28;20053;-63
2022/03/20 15:02:19;;;;;;;18.27;13.82;;;;;;;;;;4973747;28;20142;-62
2022/03/20 15:04:49;;;;;;;17.02;12.95;;;;;;;;;;4973954;28;20059;-63
2022/03/20 15:07:16;;;;;;;16.95;13.60;;;;;;;;;;4973814;28;20061;-64
2022/03/20 15:12:29;;;;;;;17.90;13.55;;;;;;;;;;4973484;28;20058;-64
2022/03/20 15:14:56;;;;;;;18.38;14.55;;;;;;;;;;4973297;28;20054;-63
2022/03/20 15:17:23;;;;;;;18.08;13.80;;;;;;;;;;4973284;28;20046;-63
2022/03/20 15:19:51;;;;;;;17.55;13.98;;;;;;;;;;4973329;28;20097;-64
2022/03/20 15:22:18;;;;;;;17.98;13.93;;;;;;;;;;4973661;28;20452;-64